sensor_id;sensor_type;location;lat;lon;timestamp;temperature;humidity
2158;DHT22;41972;48.774;9.282;2023-11-19T00:00:26;7.60;99.90
2158;DHT22;41972;48.774;9.282;2023-11-19T00:02:52;7.50;99.90
2158;DHT22;41972;48.774;9.282;2023-11-19T00:05:18;7.50;99.90
2158;DHT22;41972;48.774;9.282;2023-11-19T00:07:44;7.60;99.90
2158;DHT22;41972;48.774;9.282;2023-11-19T00:10:14;7.70;99.90
2158;DHT22;41972;48.774;9.282;2023-11-19T00:12:44;7.70;99.90
2158;DHT22;41972;48.774;9.282;2023-11-19T00:15:10;7.70;99.90
2158;DHT22;41972;48.774;9.282;2023-11-19T00:17:41;7.70;99.90
2158;DHT22;41972;48.774;9.282;2023-11-19T00:20:16;7.80;99.90
2158;DHT22;41972;48.774;9.282;2023-11-19T00:22:43;7.70;99.90
2158;DHT22;41972;48.774;9.282;2023-11-19T00:25:09;7.70;99.90
2158;DHT22;41972;48.774;9.282;2023-11-19T00:27:36;7.80;99.90
2158;DHT22;41972;48.774;9.282;2023-11-19T00:30:04;7.90;99.90
2158;DHT22;41972;48.774;9.282;2023-11-19T00:32:31;7.90;99.90
2158;DHT22;41972;48.774;9.282;2023-11-19T00:34:57;7.90;99.90
2158;DHT22;41972;48.774;9.282;2023-11-19T00:37:22;8.80;99.90
2158;DHT22;41972;48.774;9.282;2023-11-19T00:39:48;8.00;99.90
2158;DHT22;41972;48.774;9.282;2023-11-19T00:42:13;7.90;99.90
2158;DHT22;41972;48.774;9.282;2023-11-19T00:44:39;7.90;99.90
2158;DHT22;41972;48.774;9.282;2023-11-19T00:47:05;7.80;99.90
2158;DHT22;41972;48.774;9.282;2023-11-19T00:49:31;7.80;99.90
2158;DHT22;41972;48.774;9.282;2023-11-19T00:51:58;8.70;99.90
2158;DHT22;41972;48.774;9.282;2023-11-19T00:54:24;8.00;99.90
2158;DHT22;41972;48.774;9.282;2023-11-19T00:56:54;8.10;99.90
2158;DHT22;41972;48.774;9.282;2023-11-19T00:59:20;8.20;99.90
2158;DHT22;41972;48.774;9.282;2023-11-19T01:01:46;8.20;99.90
2158;DHT22;41972;48.774;9.282;2023-11-19T01:04:14;8.20;99.90
2158;DHT22;41972;48.774;9.282;2023-11-19T01:06:40;8.10;99.90
2158;DHT22;41972;48.774;9.282;2023-11-19T01:09:08;8.10;99.90
2158;DHT22;41972;48.774;9.282;2023-11-19T01:11:34;8.10;99.90
2158;DHT22;41972;48.774;9.282;2023-11-19T01:14:00;8.00;99.90
2158;DHT22;41972;48.774;9.282;2023-11-19T01:16:26;8.10;99.90
2158;DHT22;41972;48.774;9.282;2023-11-19T01:18:51;8.20;99.90
2158;DHT22;41972;48.774;9.282;2023-11-19T01:21:17;8.20;99.90
2158;DHT22;41972;48.774;9.282;2023-11-19T01:23:43;8.30;99.90
2158;DHT22;41972;48.774;9.282;2023-11-19T01:26:09;8.20;99.90
2158;DHT22;41972;48.774;9.282;2023-11-19T01:28:38;8.20;99.90
2158;DHT22;41972;48.774;9.282;2023-11-19T01:31:11;8.30;99.90
2158;DHT22;41972;48.774;9.282;2023-11-19T01:33:36;8.30;99.90
2158;DHT22;41972;48.774;9.282;2023-11-19T01:36:02;8.20;99.90
2158;DHT22;41972;48.774;9.282;2023-11-19T01:38:30;8.20;99.90
2158;DHT22;41972;48.774;9.282;2023-11-19T01:40:59;8.30;99.90
2158;DHT22;41972;48.774;9.282;2023-11-19T01:43:37;8.30;99.90
2158;DHT22;41972;48.774;9.282;2023-11-19T01:46:05;8.40;99.90
2158;DHT22;41972;48.774;9.282;2023-11-19T01:48:33;8.50;99.90
2158;DHT22;41972;48.774;9.282;2023-11-19T01:51:00;8.50;99.90
2158;DHT22;41972;48.774;9.282;2023-11-19T01:53:27;8.60;99.90
2158;DHT22;41972;48.774;9.282;2023-11-19T01:55:53;8.60;99.90
2158;DHT22;41972;48.774;9.282;2023-11-19T01:58:19;8.60;99.90
2158;DHT22;41972;48.774;9.282;2023-11-19T02:00:46;8.70;99.90
2158;DHT22;41972;48.774;9.282;2023-11-19T02:03:14;8.60;99.90
2158;DHT22;41972;48.774;9.282;2023-11-19T02:05:39;8.70;99.90
2158;DHT22;41972;48.774;9.282;2023-11-19T02:08:05;8.70;99.90
2158;DHT22;41972;48.774;9.282;2023-11-19T02:10:31;8.80;99.90
2158;DHT22;41972;48.774;9.282;2023-11-19T02:12:58;9.90;99.90
2158;DHT22;41972;48.774;9.282;2023-11-19T02:15:24;8.90;99.90
2158;DHT22;41972;48.774;9.282;2023-11-19T02:17:50;9.00;99.90
2158;DHT22;41972;48.774;9.282;2023-11-19T02:20:17;9.00;99.90
2158;DHT22;41972;48.774;9.282;2023-11-19T02:22:48;9.10;99.90
2158;DHT22;41972;48.774;9.282;2023-11-19T02:25:28;9.10;99.90
2158;DHT22;41972;48.774;9.282;2023-11-19T02:27:58;9.10;99.90
2158;DHT22;41972;48.774;9.282;2023-11-19T02:30:25;9.10;99.90
2158;DHT22;41972;48.774;9.282;2023-11-19T02:32:55;9.20;99.90
2158;DHT22;41972;48.774;9.282;2023-11-19T02:35:23;9.20;99.90
2158;DHT22;41972;48.774;9.282;2023-11-19T02:37:49;9.20;99.90
2158;DHT22;41972;48.774;9.282;2023-11-19T02:40:14;9.20;99.90
2158;DHT22;41972;48.774;9.282;2023-11-19T02:45:06;9.40;99.90
2158;DHT22;41972;48.774;9.282;2023-11-19T02:50:01;9.30;99.90
2158;DHT22;41972;48.774;9.282;2023-11-19T02:52:27;9.30;99.90
2158;DHT22;41972;48.774;9.282;2023-11-19T02:54:52;9.40;99.90
2158;DHT22;41972;48.774;9.282;2023-11-19T02:57:18;9.40;99.90
2158;DHT22;41972;48.774;9.282;2023-11-19T02:59:45;9.40;99.90
2158;DHT22;41972;48.774;9.282;2023-11-19T03:02:10;9.40;99.90
2158;DHT22;41972;48.774;9.282;2023-11-19T03:04:37;9.40;99.90
2158;DHT22;41972;48.774;9.282;2023-11-19T03:07:07;9.90;99.90
2158;DHT22;41972;48.774;9.282;2023-11-19T03:09:33;9.40;99.90
2158;DHT22;41972;48.774;9.282;2023-11-19T03:12:00;9.50;99.90
2158;DHT22;41972;48.774;9.282;2023-11-19T03:14:26;9.50;99.90
2158;DHT22;41972;48.774;9.282;2023-11-19T03:16:51;9.60;99.90
2158;DHT22;41972;48.774;9.282;2023-11-19T03:21:43;9.70;99.90
2158;DHT22;41972;48.774;9.282;2023-11-19T03:24:10;9.70;99.90
2158;DHT22;41972;48.774;9.282;2023-11-19T03:26:35;9.80;99.90
2158;DHT22;41972;48.774;9.282;2023-11-19T03:29:02;9.80;99.90
2158;DHT22;41972;48.774;9.282;2023-11-19T03:31:28;9.70;99.90
2158;DHT22;41972;48.774;9.282;2023-11-19T03:33:54;9.80;99.90
2158;DHT22;41972;48.774;9.282;2023-11-19T03:36:19;9.70;99.90
2158;DHT22;41972;48.774;9.282;2023-11-19T03:38:45;9.80;99.90
2158;DHT22;41972;48.774;9.282;2023-11-19T03:41:14;9.80;99.90
2158;DHT22;41972;48.774;9.282;2023-11-19T03:43:41;9.70;99.90
2158;DHT22;41972;48.774;9.282;2023-11-19T03:46:18;9.70;99.90
2158;DHT22;41972;48.774;9.282;2023-11-19T03:48:44;9.80;99.90
2158;DHT22;41972;48.774;9.282;2023-11-19T03:51:11;9.80;99.90
2158;DHT22;41972;48.774;9.282;2023-11-19T03:53:46;9.90;99.90
2158;DHT22;41972;48.774;9.282;2023-11-19T03:56:12;9.90;99.90
2158;DHT22;41972;48.774;9.282;2023-11-19T03:58:38;9.90;99.90
2158;DHT22;41972;48.774;9.282;2023-11-19T04:01:05;10.00;99.90
2158;DHT22;41972;48.774;9.282;2023-11-19T04:03:30;10.00;99.90
2158;DHT22;41972;48.774;9.282;2023-11-19T04:05:56;10.00;99.90
2158;DHT22;41972;48.774;9.282;2023-11-19T04:08:22;10.00;99.90
2158;DHT22;41972;48.774;9.282;2023-11-19T04:10:48;9.90;99.90
2158;DHT22;41972;48.774;9.282;2023-11-19T04:13:13;10.10;99.90
2158;DHT22;41972;48.774;9.282;2023-11-19T04:15:39;9.90;99.90
2158;DHT22;41972;48.774;9.282;2023-11-19T04:18:05;10.00;99.90
2158;DHT22;41972;48.774;9.282;2023-11-19T04:20:30;10.60;99.90
2158;DHT22;41972;48.774;9.282;2023-11-19T04:22:57;10.00;99.90
2158;DHT22;41972;48.774;9.282;2023-11-19T04:25:22;10.10;99.90
2158;DHT22;41972;48.774;9.282;2023-11-19T04:27:49;10.10;99.90
2158;DHT22;41972;48.774;9.282;2023-11-19T04:30:15;10.10;99.90
2158;DHT22;41972;48.774;9.282;2023-11-19T04:32:40;10.10;99.90
2158;DHT22;41972;48.774;9.282;2023-11-19T04:35:07;10.10;99.90
2158;DHT22;41972;48.774;9.282;2023-11-19T04:37:32;10.10;99.90
2158;DHT22;41972;48.774;9.282;2023-11-19T04:39:58;10.20;99.90
2158;DHT22;41972;48.774;9.282;2023-11-19T04:42:25;10.20;99.90
2158;DHT22;41972;48.774;9.282;2023-11-19T04:44:50;10.20;99.90
2158;DHT22;41972;48.774;9.282;2023-11-19T04:47:17;10.20;99.90
2158;DHT22;41972;48.774;9.282;2023-11-19T04:49:43;10.20;99.90
2158;DHT22;41972;48.774;9.282;2023-11-19T04:52:09;10.20;99.90
2158;DHT22;41972;48.774;9.282;2023-11-19T04:54:34;10.20;99.90
2158;DHT22;41972;48.774;9.282;2023-11-19T04:57:00;10.20;99.90
2158;DHT22;41972;48.774;9.282;2023-11-19T04:59:27;10.30;99.90
2158;DHT22;41972;48.774;9.282;2023-11-19T05:01:53;10.30;99.90
2158;DHT22;41972;48.774;9.282;2023-11-19T05:04:18;10.30;99.90
2158;DHT22;41972;48.774;9.282;2023-11-19T05:06:44;10.30;99.90
2158;DHT22;41972;48.774;9.282;2023-11-19T05:09:10;12.10;99.90
2158;DHT22;41972;48.774;9.282;2023-11-19T05:11:38;10.40;99.90
2158;DHT22;41972;48.774;9.282;2023-11-19T05:14:04;10.40;99.90
2158;DHT22;41972;48.774;9.282;2023-11-19T05:16:30;10.50;99.90
2158;DHT22;41972;48.774;9.282;2023-11-19T05:18:56;10.50;99.90
2158;DHT22;41972;48.774;9.282;2023-11-19T05:21:21;10.50;99.90
2158;DHT22;41972;48.774;9.282;2023-11-19T05:23:47;10.50;99.90
2158;DHT22;41972;48.774;9.282;2023-11-19T05:26:23;10.50;99.90
2158;DHT22;41972;48.774;9.282;2023-11-19T05:28:49;10.60;99.90
2158;DHT22;41972;48.774;9.282;2023-11-19T05:31:16;10.60;99.90
2158;DHT22;41972;48.774;9.282;2023-11-19T05:33:42;10.70;99.90
2158;DHT22;41972;48.774;9.282;2023-11-19T05:36:07;10.60;99.90
2158;DHT22;41972;48.774;9.282;2023-11-19T05:38:36;10.60;99.90
2158;DHT22;41972;48.774;9.282;2023-11-19T05:41:02;10.60;99.90
2158;DHT22;41972;48.774;9.282;2023-11-19T05:43:28;10.70;99.90
2158;DHT22;41972;48.774;9.282;2023-11-19T05:45:53;10.60;99.90
2158;DHT22;41972;48.774;9.282;2023-11-19T05:48:19;10.70;99.90
2158;DHT22;41972;48.774;9.282;2023-11-19T05:50:44;10.70;99.90
2158;DHT22;41972;48.774;9.282;2023-11-19T05:53:10;10.70;99.90
2158;DHT22;41972;48.774;9.282;2023-11-19T05:55:39;10.70;99.90
2158;DHT22;41972;48.774;9.282;2023-11-19T05:58:15;10.70;99.90
2158;DHT22;41972;48.774;9.282;2023-11-19T06:00:41;10.70;99.90
2158;DHT22;41972;48.774;9.282;2023-11-19T06:03:09;10.70;99.90
2158;DHT22;41972;48.774;9.282;2023-11-19T06:05:35;10.80;99.90
2158;DHT22;41972;48.774;9.282;2023-11-19T06:08:01;10.70;99.90
2158;DHT22;41972;48.774;9.282;2023-11-19T06:10:27;10.80;99.90
2158;DHT22;41972;48.774;9.282;2023-11-19T06:13:01;10.70;99.90
2158;DHT22;41972;48.774;9.282;2023-11-19T06:15:30;10.80;99.90
2158;DHT22;41972;48.774;9.282;2023-11-19T06:17:56;10.90;99.90
2158;DHT22;41972;48.774;9.282;2023-11-19T06:20:23;10.90;99.90
2158;DHT22;41972;48.774;9.282;2023-11-19T06:22:49;10.80;99.90
2158;DHT22;41972;48.774;9.282;2023-11-19T06:25:15;11.00;99.90
2158;DHT22;41972;48.774;9.282;2023-11-19T06:27:42;10.90;99.90
2158;DHT22;41972;48.774;9.282;2023-11-19T06:30:08;10.80;99.90
2158;DHT22;41972;48.774;9.282;2023-11-19T06:32:34;10.80;99.90
2158;DHT22;41972;48.774;9.282;2023-11-19T06:34:59;10.80;99.90
2158;DHT22;41972;48.774;9.282;2023-11-19T06:37:25;10.80;99.90
2158;DHT22;41972;48.774;9.282;2023-11-19T06:39:51;10.80;99.90
2158;DHT22;41972;48.774;9.282;2023-11-19T06:42:16;10.80;99.90
2158;DHT22;41972;48.774;9.282;2023-11-19T06:44:42;10.80;99.90
2158;DHT22;41972;48.774;9.282;2023-11-19T06:47:08;10.90;99.90
2158;DHT22;41972;48.774;9.282;2023-11-19T06:49:33;10.80;99.90
2158;DHT22;41972;48.774;9.282;2023-11-19T06:51:59;10.80;99.90
2158;DHT22;41972;48.774;9.282;2023-11-19T06:54:25;10.90;99.90
2158;DHT22;41972;48.774;9.282;2023-11-19T06:56:50;10.80;99.90
2158;DHT22;41972;48.774;9.282;2023-11-19T06:59:16;10.90;99.90
2158;DHT22;41972;48.774;9.282;2023-11-19T07:01:42;11.00;99.90
2158;DHT22;41972;48.774;9.282;2023-11-19T07:04:13;10.90;99.90
2158;DHT22;41972;48.774;9.282;2023-11-19T07:06:39;12.00;99.90
2158;DHT22;41972;48.774;9.282;2023-11-19T07:09:07;10.90;99.90
2158;DHT22;41972;48.774;9.282;2023-11-19T07:11:39;11.70;99.90
2158;DHT22;41972;48.774;9.282;2023-11-19T07:14:06;10.90;99.90
2158;DHT22;41972;48.774;9.282;2023-11-19T07:16:32;10.90;99.90
2158;DHT22;41972;48.774;9.282;2023-11-19T07:19:00;11.10;99.90
2158;DHT22;41972;48.774;9.282;2023-11-19T07:21:26;11.00;99.90
2158;DHT22;41972;48.774;9.282;2023-11-19T07:23:53;11.00;99.90
2158;DHT22;41972;48.774;9.282;2023-11-19T07:26:19;11.10;99.90
2158;DHT22;41972;48.774;9.282;2023-11-19T07:28:44;11.10;99.90
2158;DHT22;41972;48.774;9.282;2023-11-19T07:31:10;11.80;99.90
2158;DHT22;41972;48.774;9.282;2023-11-19T07:33:36;11.10;99.90
2158;DHT22;41972;48.774;9.282;2023-11-19T07:36:02;11.20;99.90
2158;DHT22;41972;48.774;9.282;2023-11-19T07:38:27;11.20;99.90
2158;DHT22;41972;48.774;9.282;2023-11-19T07:40:53;11.20;99.90
2158;DHT22;41972;48.774;9.282;2023-11-19T07:43:18;11.30;99.90
2158;DHT22;41972;48.774;9.282;2023-11-19T07:45:44;11.20;99.90
2158;DHT22;41972;48.774;9.282;2023-11-19T07:48:11;11.30;99.90
2158;DHT22;41972;48.774;9.282;2023-11-19T07:50:39;11.30;99.90
2158;DHT22;41972;48.774;9.282;2023-11-19T07:53:06;12.00;99.90
2158;DHT22;41972;48.774;9.282;2023-11-19T07:55:33;11.30;99.90
2158;DHT22;41972;48.774;9.282;2023-11-19T07:57:58;11.20;99.90
2158;DHT22;41972;48.774;9.282;2023-11-19T08:00:24;11.30;99.90
2158;DHT22;41972;48.774;9.282;2023-11-19T08:02:49;11.20;99.90
2158;DHT22;41972;48.774;9.282;2023-11-19T08:05:15;11.80;99.90
2158;DHT22;41972;48.774;9.282;2023-11-19T08:07:41;11.30;99.90
2158;DHT22;41972;48.774;9.282;2023-11-19T08:10:07;11.30;99.90
2158;DHT22;41972;48.774;9.282;2023-11-19T08:12:35;11.40;99.90
2158;DHT22;41972;48.774;9.282;2023-11-19T08:15:02;11.40;99.90
2158;DHT22;41972;48.774;9.282;2023-11-19T08:17:28;11.50;99.90
2158;DHT22;41972;48.774;9.282;2023-11-19T08:19:53;11.60;99.90
2158;DHT22;41972;48.774;9.282;2023-11-19T08:22:19;11.50;99.90
2158;DHT22;41972;48.774;9.282;2023-11-19T08:24:44;11.60;99.90
2158;DHT22;41972;48.774;9.282;2023-11-19T08:27:10;11.70;99.90
2158;DHT22;41972;48.774;9.282;2023-11-19T08:29:35;11.70;99.90
2158;DHT22;41972;48.774;9.282;2023-11-19T08:32:01;11.80;99.90
2158;DHT22;41972;48.774;9.282;2023-11-19T08:34:29;11.70;99.90
2158;DHT22;41972;48.774;9.282;2023-11-19T08:36:54;11.70;99.90
2158;DHT22;41972;48.774;9.282;2023-11-19T08:39:21;11.80;99.90
2158;DHT22;41972;48.774;9.282;2023-11-19T08:41:47;12.40;99.90
2158;DHT22;41972;48.774;9.282;2023-11-19T08:44:13;11.90;99.90
2158;DHT22;41972;48.774;9.282;2023-11-19T08:46:45;12.40;99.90
2158;DHT22;41972;48.774;9.282;2023-11-19T08:49:11;14.60;99.90
2158;DHT22;41972;48.774;9.282;2023-11-19T08:51:36;15.00;99.90
2158;DHT22;41972;48.774;9.282;2023-11-19T08:54:02;14.50;99.90
2158;DHT22;41972;48.774;9.282;2023-11-19T08:56:27;14.10;99.90
2158;DHT22;41972;48.774;9.282;2023-11-19T08:58:57;13.60;99.90
2158;DHT22;41972;48.774;9.282;2023-11-19T09:01:22;13.40;99.90
2158;DHT22;41972;48.774;9.282;2023-11-19T09:03:48;13.10;99.90
2158;DHT22;41972;48.774;9.282;2023-11-19T09:06:13;13.00;99.90
2158;DHT22;41972;48.774;9.282;2023-11-19T09:08:39;13.10;99.90
2158;DHT22;41972;48.774;9.282;2023-11-19T09:11:07;13.40;99.90
2158;DHT22;41972;48.774;9.282;2023-11-19T09:13:33;13.40;99.90
2158;DHT22;41972;48.774;9.282;2023-11-19T09:15:59;14.40;99.90
2158;DHT22;41972;48.774;9.282;2023-11-19T09:18:29;15.00;99.90
2158;DHT22;41972;48.774;9.282;2023-11-19T09:20:54;15.00;99.90
2158;DHT22;41972;48.774;9.282;2023-11-19T09:23:20;16.20;99.90
2158;DHT22;41972;48.774;9.282;2023-11-19T09:25:45;15.60;99.90
2158;DHT22;41972;48.774;9.282;2023-11-19T09:28:11;15.40;99.90
2158;DHT22;41972;48.774;9.282;2023-11-19T09:30:36;14.30;99.90
2158;DHT22;41972;48.774;9.282;2023-11-19T09:33:02;13.90;99.90
2158;DHT22;41972;48.774;9.282;2023-11-19T09:35:28;13.70;99.90
2158;DHT22;41972;48.774;9.282;2023-11-19T09:37:53;13.40;99.90
2158;DHT22;41972;48.774;9.282;2023-11-19T09:40:19;14.70;99.90
2158;DHT22;41972;48.774;9.282;2023-11-19T09:42:46;13.20;99.90
2158;DHT22;41972;48.774;9.282;2023-11-19T09:45:17;13.40;99.90
2158;DHT22;41972;48.774;9.282;2023-11-19T09:47:45;13.70;99.90
2158;DHT22;41972;48.774;9.282;2023-11-19T09:50:19;13.90;99.90
2158;DHT22;41972;48.774;9.282;2023-11-19T09:52:45;14.00;99.90
2158;DHT22;41972;48.774;9.282;2023-11-19T09:55:11;15.00;99.90
2158;DHT22;41972;48.774;9.282;2023-11-19T09:57:40;17.00;99.90
2158;DHT22;41972;48.774;9.282;2023-11-19T10:00:10;18.20;99.90
2158;DHT22;41972;48.774;9.282;2023-11-19T10:02:37;17.80;99.90
2158;DHT22;41972;48.774;9.282;2023-11-19T10:05:06;21.50;99.90
2158;DHT22;41972;48.774;9.282;2023-11-19T10:07:33;20.80;99.90
2158;DHT22;41972;48.774;9.282;2023-11-19T10:10:02;20.80;99.90
2158;DHT22;41972;48.774;9.282;2023-11-19T10:12:31;21.30;99.90
2158;DHT22;41972;48.774;9.282;2023-11-19T10:14:57;21.80;99.90
2158;DHT22;41972;48.774;9.282;2023-11-19T10:17:33;21.70;99.90
2158;DHT22;41972;48.774;9.282;2023-11-19T10:19:59;19.90;99.90
2158;DHT22;41972;48.774;9.282;2023-11-19T10:22:25;20.40;99.90
2158;DHT22;41972;48.774;9.282;2023-11-19T10:24:52;18.20;99.90
2158;DHT22;41972;48.774;9.282;2023-11-19T10:27:17;19.70;99.90
2158;DHT22;41972;48.774;9.282;2023-11-19T10:29:48;16.80;99.90
2158;DHT22;41972;48.774;9.282;2023-11-19T10:32:14;16.40;99.90
2158;DHT22;41972;48.774;9.282;2023-11-19T10:34:42;16.90;99.90
2158;DHT22;41972;48.774;9.282;2023-11-19T10:37:08;16.90;99.90
2158;DHT22;41972;48.774;9.282;2023-11-19T10:39:53;17.10;99.90
2158;DHT22;41972;48.774;9.282;2023-11-19T10:42:23;17.20;99.90
2158;DHT22;41972;48.774;9.282;2023-11-19T10:44:49;16.60;99.90
2158;DHT22;41972;48.774;9.282;2023-11-19T10:47:15;16.10;99.90
2158;DHT22;41972;48.774;9.282;2023-11-19T10:49:43;16.30;99.90
2158;DHT22;41972;48.774;9.282;2023-11-19T10:52:11;16.10;99.90
2158;DHT22;41972;48.774;9.282;2023-11-19T10:54:43;17.30;99.90
2158;DHT22;41972;48.774;9.282;2023-11-19T10:57:09;18.50;99.90
2158;DHT22;41972;48.774;9.282;2023-11-19T10:59:37;18.40;99.90
2158;DHT22;41972;48.774;9.282;2023-11-19T11:02:07;18.60;99.90
2158;DHT22;41972;48.774;9.282;2023-11-19T11:04:40;17.00;99.90
2158;DHT22;41972;48.774;9.282;2023-11-19T11:07:07;17.60;99.90
2158;DHT22;41972;48.774;9.282;2023-11-19T11:09:34;17.20;99.90
2158;DHT22;41972;48.774;9.282;2023-11-19T11:12:01;17.30;99.90
2158;DHT22;41972;48.774;9.282;2023-11-19T11:14:27;17.20;99.90
2158;DHT22;41972;48.774;9.282;2023-11-19T11:16:53;16.30;99.90
2158;DHT22;41972;48.774;9.282;2023-11-19T11:19:19;16.20;99.90
2158;DHT22;41972;48.774;9.282;2023-11-19T11:21:53;15.90;99.90
2158;DHT22;41972;48.774;9.282;2023-11-19T11:24:29;15.80;99.90
2158;DHT22;41972;48.774;9.282;2023-11-19T11:32:33;15.20;99.90
2158;DHT22;41972;48.774;9.282;2023-11-19T11:35:04;15.50;99.90
2158;DHT22;41972;48.774;9.282;2023-11-19T11:37:43;15.60;99.90
2158;DHT22;41972;48.774;9.282;2023-11-19T11:40:17;15.50;99.90
2158;DHT22;41972;48.774;9.282;2023-11-19T11:42:46;15.10;99.90
2158;DHT22;41972;48.774;9.282;2023-11-19T11:45:14;14.90;99.90
2158;DHT22;41972;48.774;9.282;2023-11-19T11:50:13;14.90;99.90
2158;DHT22;41972;48.774;9.282;2023-11-19T11:55:26;16.30;99.90
2158;DHT22;41972;48.774;9.282;2023-11-19T11:57:53;16.00;99.90
2158;DHT22;41972;48.774;9.282;2023-11-19T12:00:39;15.10;99.90
2158;DHT22;41972;48.774;9.282;2023-11-19T12:03:06;15.40;99.90
2158;DHT22;41972;48.774;9.282;2023-11-19T12:05:41;15.70;99.90
2158;DHT22;41972;48.774;9.282;2023-11-19T12:08:08;15.80;99.90
2158;DHT22;41972;48.774;9.282;2023-11-19T12:10:43;16.20;99.90
2158;DHT22;41972;48.774;9.282;2023-11-19T12:13:09;16.30;99.90
2158;DHT22;41972;48.774;9.282;2023-11-19T12:18:23;16.10;99.90
2158;DHT22;41972;48.774;9.282;2023-11-19T12:20:48;17.00;99.90
2158;DHT22;41972;48.774;9.282;2023-11-19T12:23:14;16.60;99.90
2158;DHT22;41972;48.774;9.282;2023-11-19T12:25:40;16.30;99.90
2158;DHT22;41972;48.774;9.282;2023-11-19T12:28:12;16.50;99.90
2158;DHT22;41972;48.774;9.282;2023-11-19T12:30:38;16.20;99.90
2158;DHT22;41972;48.774;9.282;2023-11-19T12:33:08;16.10;99.90
2158;DHT22;41972;48.774;9.282;2023-11-19T12:35:43;16.00;99.90
2158;DHT22;41972;48.774;9.282;2023-11-19T12:38:22;16.10;99.90
2158;DHT22;41972;48.774;9.282;2023-11-19T12:41:05;16.00;99.90
2158;DHT22;41972;48.774;9.282;2023-11-19T12:43:30;15.70;99.90
2158;DHT22;41972;48.774;9.282;2023-11-19T12:45:56;15.70;99.90
2158;DHT22;41972;48.774;9.282;2023-11-19T12:48:22;16.10;99.90
2158;DHT22;41972;48.774;9.282;2023-11-19T12:50:55;16.10;99.90
2158;DHT22;41972;48.774;9.282;2023-11-19T12:53:23;18.40;99.90
2158;DHT22;41972;48.774;9.282;2023-11-19T12:55:50;16.40;99.90
2158;DHT22;41972;48.774;9.282;2023-11-19T12:58:35;15.90;99.90
2158;DHT22;41972;48.774;9.282;2023-11-19T13:01:06;15.70;99.90
2158;DHT22;41972;48.774;9.282;2023-11-19T13:03:32;15.60;99.90
2158;DHT22;41972;48.774;9.282;2023-11-19T13:06:06;15.60;99.90
2158;DHT22;41972;48.774;9.282;2023-11-19T13:08:47;15.70;99.90
2158;DHT22;41972;48.774;9.282;2023-11-19T13:11:31;15.60;99.90
2158;DHT22;41972;48.774;9.282;2023-11-19T13:13:59;15.50;99.90
2158;DHT22;41972;48.774;9.282;2023-11-19T13:16:25;15.50;99.90
2158;DHT22;41972;48.774;9.282;2023-11-19T13:18:51;16.80;99.90
2158;DHT22;41972;48.774;9.282;2023-11-19T13:21:17;15.60;99.90
2158;DHT22;41972;48.774;9.282;2023-11-19T13:23:43;15.40;99.90
2158;DHT22;41972;48.774;9.282;2023-11-19T13:26:09;15.40;99.90
2158;DHT22;41972;48.774;9.282;2023-11-19T13:28:35;15.70;99.90
2158;DHT22;41972;48.774;9.282;2023-11-19T13:31:00;15.10;99.90
2158;DHT22;41972;48.774;9.282;2023-11-19T13:33:26;15.10;99.90
2158;DHT22;41972;48.774;9.282;2023-11-19T13:35:52;14.80;99.90
2158;DHT22;41972;48.774;9.282;2023-11-19T13:38:17;14.80;99.90
2158;DHT22;41972;48.774;9.282;2023-11-19T13:40:43;14.90;99.90
2158;DHT22;41972;48.774;9.282;2023-11-19T13:43:08;14.90;99.90
2158;DHT22;41972;48.774;9.282;2023-11-19T13:45:34;14.80;99.90
2158;DHT22;41972;48.774;9.282;2023-11-19T13:47:59;14.80;99.90
2158;DHT22;41972;48.774;9.282;2023-11-19T13:50:25;14.70;99.90
2158;DHT22;41972;48.774;9.282;2023-11-19T13:52:51;14.70;99.90
2158;DHT22;41972;48.774;9.282;2023-11-19T13:55:17;14.80;99.90
2158;DHT22;41972;48.774;9.282;2023-11-19T13:57:43;14.80;99.90
2158;DHT22;41972;48.774;9.282;2023-11-19T14:00:10;14.80;99.90
2158;DHT22;41972;48.774;9.282;2023-11-19T14:02:42;14.70;99.90
2158;DHT22;41972;48.774;9.282;2023-11-19T14:05:09;14.60;99.90
2158;DHT22;41972;48.774;9.282;2023-11-19T14:07:39;14.50;99.90
2158;DHT22;41972;48.774;9.282;2023-11-19T14:10:05;14.50;99.90
2158;DHT22;41972;48.774;9.282;2023-11-19T14:12:35;14.40;99.90
2158;DHT22;41972;48.774;9.282;2023-11-19T14:15:04;14.30;99.90
2158;DHT22;41972;48.774;9.282;2023-11-19T14:17:32;14.00;99.90
2158;DHT22;41972;48.774;9.282;2023-11-19T14:19:57;14.20;99.90
2158;DHT22;41972;48.774;9.282;2023-11-19T14:22:23;14.20;99.90
2158;DHT22;41972;48.774;9.282;2023-11-19T14:24:50;14.10;99.90
2158;DHT22;41972;48.774;9.282;2023-11-19T14:27:15;14.10;99.90
2158;DHT22;41972;48.774;9.282;2023-11-19T14:29:42;14.10;99.90
2158;DHT22;41972;48.774;9.282;2023-11-19T14:32:08;14.00;99.90
2158;DHT22;41972;48.774;9.282;2023-11-19T14:34:34;14.10;99.90
2158;DHT22;41972;48.774;9.282;2023-11-19T14:36:59;14.10;99.90
2158;DHT22;41972;48.774;9.282;2023-11-19T14:39:26;14.00;99.90
2158;DHT22;41972;48.774;9.282;2023-11-19T14:41:51;14.00;99.90
2158;DHT22;41972;48.774;9.282;2023-11-19T14:44:18;13.90;99.90
2158;DHT22;41972;48.774;9.282;2023-11-19T14:46:46;13.80;99.90
2158;DHT22;41972;48.774;9.282;2023-11-19T14:49:12;13.80;99.90
2158;DHT22;41972;48.774;9.282;2023-11-19T14:51:39;13.60;99.90
2158;DHT22;41972;48.774;9.282;2023-11-19T14:54:05;13.40;99.90
2158;DHT22;41972;48.774;9.282;2023-11-19T14:56:31;13.50;99.90
2158;DHT22;41972;48.774;9.282;2023-11-19T14:58:56;13.50;99.90
2158;DHT22;41972;48.774;9.282;2023-11-19T15:01:22;13.50;99.90
2158;DHT22;41972;48.774;9.282;2023-11-19T15:03:47;13.30;99.90
2158;DHT22;41972;48.774;9.282;2023-11-19T15:06:13;13.50;99.90
2158;DHT22;41972;48.774;9.282;2023-11-19T15:08:39;13.50;99.90
2158;DHT22;41972;48.774;9.282;2023-11-19T15:11:05;13.50;99.90
2158;DHT22;41972;48.774;9.282;2023-11-19T15:13:32;13.30;99.90
2158;DHT22;41972;48.774;9.282;2023-11-19T15:15:58;13.20;99.90
2158;DHT22;41972;48.774;9.282;2023-11-19T15:18:24;13.00;99.90
2158;DHT22;41972;48.774;9.282;2023-11-19T15:20:49;13.00;99.90
2158;DHT22;41972;48.774;9.282;2023-11-19T15:23:15;12.90;99.90
2158;DHT22;41972;48.774;9.282;2023-11-19T15:25:41;14.20;99.90
2158;DHT22;41972;48.774;9.282;2023-11-19T15:28:07;13.80;99.90
2158;DHT22;41972;48.774;9.282;2023-11-19T15:30:33;13.00;99.90
2158;DHT22;41972;48.774;9.282;2023-11-19T15:32:58;13.70;99.90
2158;DHT22;41972;48.774;9.282;2023-11-19T15:35:24;13.00;99.90
2158;DHT22;41972;48.774;9.282;2023-11-19T15:37:50;13.00;99.90
2158;DHT22;41972;48.774;9.282;2023-11-19T15:40:15;12.80;99.90
2158;DHT22;41972;48.774;9.282;2023-11-19T15:42:41;12.50;99.90
2158;DHT22;41972;48.774;9.282;2023-11-19T15:45:09;12.50;99.90
2158;DHT22;41972;48.774;9.282;2023-11-19T15:47:35;12.40;99.90
2158;DHT22;41972;48.774;9.282;2023-11-19T15:50:04;12.50;99.90
2158;DHT22;41972;48.774;9.282;2023-11-19T15:52:30;12.30;99.90
2158;DHT22;41972;48.774;9.282;2023-11-19T15:54:56;12.50;99.90
2158;DHT22;41972;48.774;9.282;2023-11-19T15:57:22;12.30;99.90
2158;DHT22;41972;48.774;9.282;2023-11-19T15:59:48;12.20;99.90
2158;DHT22;41972;48.774;9.282;2023-11-19T16:02:14;12.10;99.90
2158;DHT22;41972;48.774;9.282;2023-11-19T16:04:40;12.00;99.90
2158;DHT22;41972;48.774;9.282;2023-11-19T16:07:06;12.40;99.90
2158;DHT22;41972;48.774;9.282;2023-11-19T16:09:31;12.20;99.90